METAR rapporter

 

EKAH - Tirstrup (civ/Mi, Denmark
Afstand fra stationen: SSV 25km
Opdateret: 07/05/2021 21:20
Regn, Mest skyet
Regn, Mest skyet
 Vind fra SSV
Vind: SSV 4 km/h
Temperatur: 6°C
Dugpunkt: 4°C
Fugtighed: 87%
Barometer: 1010 hPa
Oversigt: Regn
Skydække: Mest skyet
Sigtbarhed: 10 km
Skyhøjde: Mest skyet 823 m
2021/05/07 19:20 EKAH 071920Z AUTO 20002KT 9999 RA BKN027/// 06/04 Q1010
EKYT - Alborg, Denmark
Afstand fra stationen: NV 91km
Opdateret: 07/05/2021 21:20
Klart
Klart
 Vind fra NV
Vind: NV 6 km/h
Temperatur: 6°C
Dugpunkt: 3°C
Fugtighed: 81%
Barometer: 1009 hPa
Skydække: Klart
Sigtbarhed: 10 km
2021/05/07 19:20 EKYT 071920Z AUTO 31003KT 9999 NCD 06/03 Q1009
EKKA - Karup (dan-Afb), Denmark
Afstand fra stationen: V 107km
Opdateret: 07/05/2021 21:20
Delvist skyet
Delvist skyet
 Vind fra V
Vind: V 13 km/h
Temperatur: 6°C
Kuldeindeks: 3°C
Dugpunkt: 3°C
Fugtighed: 81%
Barometer: 1010 hPa
Skydække: Delvist skyet
Sigtbarhed: 10 km
Skyhøjde: Delvist skyet 610 m
2021/05/07 19:20 EKKA 071920Z AUTO 28007KT 9999 SCT020/// 06/03 Q1010
 
EKOD - Odense/Beldringe, Denmark
Afstand fra stationen: SSV 116km
Opdateret: 07/05/2021 17:50
Ikke opdateret
Delvist skyet
Delvist skyet
 Vind fra V
Vind: V 13 km/h
Temperatur: 8°C
Kuldeindeks: 6°C
Dugpunkt: 5°C
Fugtighed: 82%
Barometer: 1009 hPa
Skydække: Delvist skyet
Sigtbarhed: 10 km
Skyhøjde: Få skyer 732 m
Delvist skyet 2286 m
2021/05/07 15:50 EKOD 071550Z 27007KT 230V310 9999 FEW024CB SCT075 08/05 Q1009
EKBI - Billund Airport, Denmark
Afstand fra stationen: SV 134km
Opdateret: 07/05/2021 21:20
Få skyer
Få skyer
 Vind fra V
Vind: V 15 km/h
Temperatur: 5°C
Kuldeindeks: 2°C
Dugpunkt: 3°C
Fugtighed: 87%
Barometer: 1011 hPa
Skydække: Få skyer
Sigtbarhed: 10 km
Skyhøjde: Få skyer 1280 m
2021/05/07 19:20 EKBI 071920Z AUTO 27008KT 9999 FEW042/// 05/03 Q1011
EKCH - Copenhagen/Kastr, Denmark
Afstand fra stationen: SØ 148km
Opdateret: 07/05/2021 21:20
Delvist skyet
Delvist skyet
 Vind fra VSV
Vind: VSV 9 km/h
Temperatur: 6°C
Kuldeindeks: 4°C
Dugpunkt: 4°C
Fugtighed: 87%
Barometer: 1010 hPa
Skydække: Delvist skyet
Sigtbarhed: 10 km
Skyhøjde: Få skyer 762 m
Delvist skyet 914 m
2021/05/07 19:20 EKCH 071920Z 25005KT 9999 FEW025CB SCT030 06/04 Q1010 NOSIG